Time;durP1;ratioP1;P1;durP2;ratioP2;P2;SDS_P1;SDS_P2;PMS_P1;PMS_P2;Temp;Humidity;BMP_temperature;BMP_pressure;BME280_temperature;BME280_humidity;BME280_pressure;Samples;Min_cycle;Max_cycle;Signal;HPM_P1;HPM_P2
2022/04/12 00:00:09;;;;;;;6.78;4.15;;;;;;;8.25;52.73;101078.25;5029463;28;22168;-66
2022/04/12 00:02:41;;;;;;;6.80;3.80;;;;;;;8.24;52.88;101081.75;5031021;28;20045;-68
2022/04/12 00:05:12;;;;;;;8.45;3.67;;;;;;;8.21;53.02;101079.19;5028763;28;20042;-66
2022/04/12 00:07:59;;;;;;;9.18;3.58;;;;;;;8.19;52.78;101075.72;5028218;28;20046;-66
2022/04/12 00:10:29;;;;;;;7.13;3.72;;;;;;;8.19;53.04;101081.84;5031855;28;20044;-66
2022/04/12 00:12:58;;;;;;;7.45;3.60;;;;;;;8.17;52.83;101083.63;5026248;28;20081;-65
2022/04/12 00:15:26;;;;;;;5.65;3.65;;;;;;;8.16;52.90;101074.00;5032104;28;20982;-67
2022/04/12 00:20:41;;;;;;;7.13;3.72;;;;;;;8.16;52.89;101065.28;5032595;28;20512;-67
2022/04/12 00:23:08;;;;;;;5.75;4.07;;;;;;;8.17;52.97;101065.22;5030215;28;20049;-65
2022/04/12 00:25:35;;;;;;;8.05;3.83;;;;;;;8.16;53.06;101066.13;5028572;28;20056;-66
2022/04/12 00:28:03;;;;;;;4.45;3.47;;;;;;;8.15;53.01;101061.75;5031193;28;20046;-66
2022/04/12 00:30:30;;;;;;;6.10;4.03;;;;;;;8.18;53.13;101056.47;5027104;28;20125;-66
2022/04/12 00:32:57;;;;;;;5.60;3.25;;;;;;;8.18;53.16;101045.09;5031096;28;20034;-67
2022/04/12 00:35:25;;;;;;;5.40;3.30;;;;;;;8.20;52.98;101040.66;5032121;28;20037;-69
2022/04/12 00:37:53;;;;;;;8.52;3.60;;;;;;;8.22;53.03;101034.53;5031644;28;20045;-70
2022/04/12 00:40:26;;;;;;;5.57;3.63;;;;;;;8.24;52.99;101030.09;5031528;28;20044;-69
2022/04/12 00:42:54;;;;;;;8.07;3.78;;;;;;;8.24;52.97;101034.47;5031463;28;20128;-70
2022/04/12 00:45:21;;;;;;;9.13;3.97;;;;;;;8.24;53.04;101031.84;5030278;28;20508;-69
2022/04/12 00:47:51;;;;;;;6.03;3.67;;;;;;;8.24;53.13;101031.84;5030556;28;20613;-70
2022/04/12 00:50:18;;;;;;;5.72;3.40;;;;;;;8.26;52.89;101029.19;5032183;28;20486;-70
2022/04/12 00:52:50;;;;;;;6.55;3.83;;;;;;;8.28;52.89;101024.78;5030765;28;20073;-71
2022/04/12 00:55:17;;;;;;;6.60;3.15;;;;;;;8.27;53.21;101025.69;5031238;28;20412;-70
2022/04/12 00:57:45;;;;;;;7.18;3.92;;;;;;;8.26;53.14;101027.44;5030372;28;20691;-70
2022/04/12 01:00:16;;;;;;;5.68;3.75;;;;;;;8.23;53.19;101036.25;5029322;28;20052;-69
2022/04/12 01:02:43;;;;;;;5.95;3.30;;;;;;;8.18;53.24;101038.09;5028336;28;20077;-70
2022/04/12 01:05:11;;;;;;;7.15;3.28;;;;;;;8.16;53.65;101036.38;5030429;28;20505;-69
2022/04/12 01:07:38;;;;;;;6.18;3.60;;;;;;;8.14;53.60;101025.88;5030585;28;20034;-69
2022/04/12 01:10:06;;;;;;;6.63;3.55;;;;;;;8.13;53.72;101024.19;5030208;28;20082;-69
2022/04/12 01:12:41;;;;;;;5.90;3.33;;;;;;;8.11;53.67;101023.34;5029556;28;20042;-69
2022/04/12 01:15:18;;;;;;;6.35;3.83;;;;;;;8.09;53.87;101030.38;5016903;28;20551;-67
2022/04/12 01:17:46;;;;;;;6.65;3.42;;;;;;;8.06;54.15;101020.78;5031207;28;20069;-69
2022/04/12 01:20:19;;;;;;;5.85;3.70;;;;;;;8.02;54.24;101016.47;5030612;28;20050;-66
2022/04/12 01:23:44;;;;;;;9.15;3.97;;;;;;;8.01;54.42;101011.25;5029628;28;20100;-68
2022/04/12 01:26:11;;;;;;;7.88;3.63;;;;;;;8.00;54.36;101017.41;5028120;28;20045;-68
2022/04/12 01:28:38;;;;;;;6.30;3.67;;;;;;;8.00;54.54;101018.25;5029315;28;20068;-67
2022/04/12 01:31:05;;;;;;;8.00;3.58;;;;;;;7.97;54.52;101018.31;5025133;28;20045;-67
2022/04/12 01:33:34;;;;;;;7.13;3.38;;;;;;;7.97;54.80;101018.31;5022764;28;20116;-67
2022/04/12 01:36:01;;;;;;;6.68;3.70;;;;;;;7.97;54.85;101017.44;5022720;28;20034;-68
2022/04/12 01:38:28;;;;;;;6.20;3.75;;;;;;;7.91;54.74;101010.53;5027404;28;20863;-68
2022/04/12 01:40:55;;;;;;;6.50;3.47;;;;;;;7.87;55.18;101001.84;5029350;28;20038;-69
2022/04/12 01:43:22;;;;;;;6.03;3.40;;;;;;;7.85;55.18;101005.38;5029202;28;20045;-67
2022/04/12 01:45:49;;;;;;;9.63;4.30;;;;;;;7.84;55.20;100996.63;5031369;28;20042;-67
2022/04/12 01:48:16;;;;;;;8.35;4.45;;;;;;;7.84;55.25;101011.53;5030279;28;20046;-67
2022/04/12 01:50:43;;;;;;;8.63;3.95;;;;;;;7.81;55.27;101006.31;5031577;28;20049;-68
2022/04/12 01:53:10;;;;;;;7.45;4.00;;;;;;;7.80;55.51;101017.69;5030664;28;20034;-68
2022/04/12 01:55:37;;;;;;;7.18;3.90;;;;;;;7.77;55.54;101006.38;5030199;28;20053;-67
2022/04/12 01:58:05;;;;;;;7.18;3.80;;;;;;;7.79;55.56;101011.59;5030783;28;20046;-66
2022/04/12 02:00:32;;;;;;;7.57;3.50;;;;;;;7.80;55.69;101015.97;5032990;28;20455;-69
2022/04/12 02:02:59;;;;;;;7.85;4.10;;;;;;;7.80;55.50;101021.22;5030760;28;20148;-68
2022/04/12 02:05:27;;;;;;;8.48;3.83;;;;;;;7.77;55.55;101021.25;5033563;28;20030;-68
2022/04/12 02:07:54;;;;;;;7.18;3.90;;;;;;;7.75;55.85;101017.78;5033037;28;20089;-70
2022/04/12 02:10:22;;;;;;;7.72;4.00;;;;;;;7.74;55.76;101016.94;5033465;28;20515;-69
2022/04/12 02:12:49;;;;;;;7.47;4.22;;;;;;;7.74;55.68;101016.03;5032490;28;20057;-68
2022/04/12 02:15:17;;;;;;;6.60;4.00;;;;;;;7.72;55.66;101008.19;5034185;28;20077;-69
2022/04/12 02:17:44;;;;;;;11.65;3.97;;;;;;;7.73;55.92;100999.44;5033619;28;20050;-69
2022/04/12 02:20:11;;;;;;;8.63;4.00;;;;;;;7.75;55.91;101002.03;5034358;28;20037;-67
2022/04/12 02:22:38;;;;;;;7.68;4.00;;;;;;;7.78;55.64;101002.84;5033873;28;20709;-68
2022/04/12 02:25:06;;;;;;;6.18;3.50;;;;;;;7.80;55.81;100994.97;5028868;28;20088;-66
2022/04/12 02:27:34;;;;;;;7.25;3.70;;;;;;;7.81;55.70;100987.94;5032341;28;20912;-66
2022/04/12 02:30:08;;;;;;;6.50;3.63;;;;;;;7.84;55.82;101004.50;5033321;28;20069;-66
2022/04/12 02:32:35;;;;;;;5.50;3.67;;;;;;;7.81;55.65;100999.31;5032593;28;20490;-67
2022/04/12 02:35:03;;;;;;;5.30;3.30;;;;;;;7.81;55.90;101003.69;5032404;28;20050;-67
2022/04/12 02:37:30;;;;;;;8.57;3.78;;;;;;;7.78;56.01;100997.59;5031929;28;20046;-66
2022/04/12 02:39:57;;;;;;;6.55;3.83;;;;;;;7.74;55.57;101006.44;5032286;28;20049;-66
2022/04/12 02:42:24;;;;;;;8.20;3.78;;;;;;;7.69;56.05;101002.13;5033226;28;20045;-68
2022/04/12 02:44:51;;;;;;;6.97;3.72;;;;;;;7.65;56.15;100992.56;5033796;28;20049;-67
2022/04/12 02:47:18;;;;;;;9.45;4.10;;;;;;;7.60;56.17;100998.78;5031027;28;20042;-66
2022/04/12 02:49:45;;;;;;;6.32;4.25;;;;;;;7.56;56.18;100997.06;5033226;28;20042;-69
2022/04/12 02:52:12;;;;;;;7.57;3.80;;;;;;;7.52;56.29;100995.41;5032986;28;20423;-67
2022/04/12 02:54:39;;;;;;;8.50;4.22;;;;;;;7.52;56.57;100990.16;5033061;28;20085;-67
2022/04/12 02:57:07;;;;;;;8.98;4.18;;;;;;;7.52;56.49;100987.53;5032208;28;20091;-68
2022/04/12 02:59:34;;;;;;;6.80;3.65;;;;;;;7.52;56.81;100971.78;5032976;28;20053;-67
2022/04/12 03:02:01;;;;;;;8.10;3.78;;;;;;;7.51;56.61;100977.03;5033043;28;20056;-68
2022/04/12 03:04:29;;;;;;;12.00;4.25;;;;;;;7.48;56.71;100983.22;5023492;28;20046;-67
2022/04/12 03:06:56;;;;;;;8.13;4.25;;;;;;;7.44;56.79;100976.25;5031273;28;20105;-65
2022/04/12 03:09:29;;;;;;;8.10;4.28;;;;;;;7.41;57.11;100977.19;5030686;28;20038;-67
2022/04/12 03:11:56;;;;;;;6.75;4.07;;;;;;;7.40;57.05;100970.22;5020286;28;20575;-67
2022/04/12 03:14:23;;;;;;;5.63;3.78;;;;;;;7.38;57.45;100966.72;5033512;28;20053;-67
2022/04/12 03:16:50;;;;;;;8.88;3.92;;;;;;;7.39;57.11;100965.84;5032134;28;20127;-68
2022/04/12 03:19:17;;;;;;;7.80;3.70;;;;;;;7.39;57.22;100965.84;5032772;28;20535;-68
2022/04/12 03:21:48;;;;;;;10.20;4.60;;;;;;;7.38;57.22;100966.72;5032420;28;20042;-68
2022/04/12 03:24:15;;;;;;;8.57;4.15;;;;;;;7.37;57.34;100964.13;5031383;28;20495;-68
2022/04/12 03:26:46;;;;;;;8.10;4.60;;;;;;;7.36;57.38;100959.78;5031088;28;20151;-67
2022/04/12 03:29:13;;;;;;;8.55;4.10;;;;;;;7.34;57.48;100961.56;5030359;28;20799;-68
2022/04/12 03:31:40;;;;;;;6.85;4.68;;;;;;;7.32;57.60;100958.13;5031212;28;20429;-67
2022/04/12 03:34:08;;;;;;;9.80;3.85;;;;;;;7.29;57.64;100956.38;5032222;28;20065;-68
2022/04/12 03:36:36;;;;;;;7.72;4.53;;;;;;;7.29;57.62;100953.75;5031611;28;20042;-67
2022/04/12 03:39:04;;;;;;;7.72;4.47;;;;;;;7.30;57.64;100947.63;5026531;28;20042;-67
2022/04/12 03:41:31;;;;;;;8.30;4.28;;;;;;;7.28;57.57;100950.28;5033265;28;20533;-70
2022/04/12 03:43:58;;;;;;;7.80;4.40;;;;;;;7.28;57.86;100947.66;5032330;28;20077;-68
2022/04/12 03:46:26;;;;;;;9.13;4.50;;;;;;;7.28;58.05;100946.78;5038809;28;20045;-67
2022/04/12 03:48:53;;;;;;;10.75;4.70;;;;;;;7.26;57.93;100936.31;5038863;28;20468;-67
2022/04/12 03:51:20;;;;;;;8.35;4.40;;;;;;;7.28;58.06;100931.03;5038497;28;20057;-66
2022/04/12 03:53:47;;;;;;;8.18;4.38;;;;;;;7.32;57.99;100934.50;5040227;28;20992;-67
2022/04/12 03:56:14;;;;;;;7.35;4.18;;;;;;;7.34;57.97;100920.47;5042564;28;20121;-69
2022/04/12 03:58:45;;;;;;;6.25;3.72;;;;;;;7.38;57.91;100916.03;5031029;28;20048;-69
2022/04/12 04:01:12;;;;;;;7.13;4.15;;;;;;;7.40;57.75;100923.00;5032075;28;20089;-69
2022/04/12 04:03:40;;;;;;;9.48;4.50;;;;;;;7.44;57.76;100923.81;5031837;28;20042;-67
2022/04/12 04:06:07;;;;;;;10.63;4.35;;;;;;;7.45;57.85;100922.91;5032240;28;20519;-68
2022/04/12 04:08:35;;;;;;;7.00;3.92;;;;;;;7.44;57.75;100927.31;5032083;28;20053;-69
2022/04/12 04:11:02;;;;;;;21.17;5.20;;;;;;;7.44;57.67;100936.91;5030068;28;20432;-69
2022/04/12 04:13:36;;;;;;;19.45;5.38;;;;;;;7.41;57.72;100940.47;5030228;28;20547;-69
2022/04/12 04:16:05;;;;;;;12.35;4.68;;;;;;;7.38;57.90;100942.28;5031467;28;20045;-69
2022/04/12 04:18:34;;;;;;;11.55;4.53;;;;;;;7.32;57.84;100940.59;5028628;28;20045;-68
2022/04/12 04:21:02;;;;;;;9.90;4.63;;;;;;;7.28;58.15;100941.53;5030972;28;20030;-70
2022/04/12 04:23:30;;;;;;;9.35;4.75;;;;;;;7.22;58.31;100944.25;5031601;28;20046;-69
2022/04/12 04:25:57;;;;;;;9.15;4.45;;;;;;;7.14;58.20;100947.88;5030781;28;20038;-70
2022/04/12 04:28:28;;;;;;;9.75;4.55;;;;;;;7.09;58.42;100952.28;5029667;28;20040;-68
2022/04/12 04:30:56;;;;;;;7.65;4.22;;;;;;;7.06;58.48;100949.75;5027296;28;20049;-67
2022/04/12 04:33:23;;;;;;;11.68;4.47;;;;;;;7.03;58.76;100948.88;5029794;28;20038;-70
2022/04/12 04:35:51;;;;;;;11.90;4.53;;;;;;;7.01;58.75;100942.81;5031321;28;20046;-70
2022/04/12 04:38:18;;;;;;;10.40;4.70;;;;;;;6.99;59.04;100940.19;5035487;28;20045;-68
2022/04/12 04:40:46;;;;;;;11.30;4.88;;;;;;;6.98;59.15;100941.97;5029690;28;20062;-68
2022/04/12 04:43:15;;;;;;;8.57;4.60;;;;;;;6.97;59.33;100942.84;5031799;28;20125;-65
2022/04/12 04:45:46;;;;;;;7.80;4.43;;;;;;;6.96;59.36;100945.50;5032914;28;20571;-64
2022/04/12 04:48:13;;;;;;;9.75;4.68;;;;;;;6.93;59.47;100942.91;5027918;28;20064;-67
2022/04/12 04:50:41;;;;;;;9.85;4.57;;;;;;;6.92;59.86;100934.16;5032233;28;20048;-68
2022/04/12 04:53:11;;;;;;;8.13;4.47;;;;;;;6.93;59.74;100928.03;5030683;28;20076;-67
2022/04/12 04:55:42;;;;;;;10.85;4.50;;;;;;;6.94;59.69;100931.56;5030128;28;20049;-67
2022/04/12 04:58:10;;;;;;;11.02;5.00;;;;;;;6.93;59.94;100935.91;5029913;28;20180;-68
2022/04/12 05:00:37;;;;;;;8.65;4.55;;;;;;;6.95;60.23;100939.38;5031684;28;20042;-69
2022/04/12 05:03:05;;;;;;;9.63;4.78;;;;;;;7.11;61.87;100940.03;5031156;28;20773;-69
2022/04/12 05:05:33;;;;;;;8.27;4.47;;;;;;;7.38;61.97;100939.66;5031832;28;20045;-69
2022/04/12 05:08:02;;;;;;;11.57;5.32;;;;;;;7.64;60.79;100936.63;5028706;28;20097;-69
2022/04/12 05:10:34;;;;;;;12.50;4.80;;;;;;;7.82;58.66;100942.44;5024816;28;20038;-68
2022/04/12 05:13:03;;;;;;;9.30;4.93;;;;;;;7.80;58.17;100949.47;5025077;28;20108;-68
2022/04/12 05:15:30;;;;;;;9.27;4.70;;;;;;;7.78;58.17;100950.34;5031433;28;20065;-69
2022/04/12 05:18:03;;;;;;;11.13;4.55;;;;;;;7.83;58.08;100945.06;5032798;28;20038;-68
2022/04/12 05:20:30;;;;;;;18.25;5.40;;;;;;;8.02;57.63;100942.94;5031356;28;20057;-69
2022/04/12 05:22:57;;;;;;;10.32;4.93;;;;;;;8.24;57.07;100945.19;5039301;28;20042;-68
2022/04/12 05:25:24;;;;;;;8.13;4.72;;;;;;;8.11;57.04;100935.78;5036988;28;20134;-66
2022/04/12 05:27:52;;;;;;;8.27;4.80;;;;;;;7.95;57.21;100930.84;5028612;28;20056;-70
2022/04/12 05:30:21;;;;;;;24.15;6.60;;;;;;;7.83;57.54;100936.28;5026406;28;20048;-67
2022/04/12 05:32:50;;;;;;;8.68;5.05;;;;;;;7.77;57.79;100934.63;5033369;28;20038;-68
2022/04/12 05:35:18;;;;;;;9.90;4.93;;;;;;;7.81;57.90;100935.44;5033372;28;20124;-70
2022/04/12 05:37:49;;;;;;;9.48;5.00;;;;;;;7.92;57.79;100942.25;5034115;28;20042;-69
2022/04/12 05:40:18;;;;;;;9.82;5.20;;;;;;;8.07;57.60;100945.50;5034735;28;20546;-69
2022/04/12 05:42:47;;;;;;;12.88;5.43;;;;;;;8.27;57.32;100957.38;5034152;28;20124;-69
2022/04/12 05:45:15;;;;;;;14.50;5.88;;;;;;;8.45;57.12;100964.06;5034024;28;20044;-70
2022/04/12 05:47:51;;;;;;;8.70;4.70;;;;;;;8.64;56.64;100975.13;5033185;28;20045;-69
2022/04/12 05:50:24;;;;;;;9.40;5.13;;;;;;;8.83;56.40;100965.06;5041147;28;20120;-70
2022/04/12 05:52:52;;;;;;;11.43;4.85;;;;;;;9.07;56.30;100968.94;5046923;28;20141;-69
2022/04/12 05:55:23;;;;;;;9.82;5.05;;;;;;;9.28;55.94;100956.19;5034713;28;20038;-68
2022/04/12 05:58:03;;;;;;;9.32;5.18;;;;;;;9.48;55.23;100947.84;5023736;28;20512;-70
2022/04/12 06:00:33;;;;;;;10.25;4.80;;;;;;;9.68;54.40;100949.97;5019539;28;20056;-69
2022/04/12 06:03:02;;;;;;;8.90;4.45;;;;;;;9.78;54.40;100958.53;5017155;28;20104;-69
2022/04/12 06:05:32;;;;;;;8.07;4.90;;;;;;;9.82;54.20;100957.53;5031209;28;20230;-69
2022/04/12 06:08:00;;;;;;;19.02;5.00;;;;;;;9.86;53.80;100946.03;5034817;28;20127;-72
2022/04/12 06:10:28;;;;;;;7.68;4.50;;;;;;;9.90;53.75;100952.94;5031750;28;20045;-70
2022/04/12 06:12:58;;;;;;;10.20;4.78;;;;;;;9.91;53.07;100953.81;5019298;28;20511;-69
2022/04/12 06:15:26;;;;;;;9.40;4.97;;;;;;;9.90;53.49;100950.31;5033580;28;20528;-67
2022/04/12 06:17:53;;;;;;;12.48;5.07;;;;;;;9.91;53.72;100956.44;5019046;28;20511;-68
2022/04/12 06:20:21;;;;;;;16.45;5.38;;;;;;;9.85;53.57;100965.34;5019278;28;20054;-69
2022/04/12 06:22:48;;;;;;;13.15;4.75;;;;;;;9.84;53.30;100965.41;5034616;28;20042;-71
2022/04/12 06:25:19;;;;;;;8.20;5.10;;;;;;;9.81;53.77;100963.72;5034853;28;20064;-69
2022/04/12 06:27:50;;;;;;;7.80;4.75;;;;;;;9.79;53.77;100962.88;5033564;28;20516;-69
2022/04/12 06:30:25;;;;;;;9.95;4.93;;;;;;;9.84;53.84;100965.41;5034457;28;20038;-68
2022/04/12 06:32:53;;;;;;;7.90;4.82;;;;;;;9.98;53.85;100955.38;5034979;28;20435;-69
2022/04/12 06:35:20;;;;;;;12.77;5.05;;;;;;;10.13;53.51;100942.72;5034413;28;20044;-70
2022/04/12 06:37:59;;;;;;;10.07;5.20;;;;;;;10.26;53.25;100946.75;5034347;28;20045;-69
2022/04/12 06:40:26;;;;;;;10.07;4.97;;;;;;;10.40;53.11;100941.97;5033054;28;20070;-68
2022/04/12 06:42:53;;;;;;;9.73;5.03;;;;;;;10.53;53.02;100953.03;5033203;28;20038;-69
2022/04/12 06:45:21;;;;;;;9.48;4.97;;;;;;;10.69;52.68;100950.81;5033663;28;20042;-67
2022/04/12 06:47:56;;;;;;;10.45;4.68;;;;;;;10.87;52.52;100956.50;5034050;28;20124;-68
2022/04/12 06:50:25;;;;;;;9.38;4.35;;;;;;;11.05;52.43;100968.25;5033678;28;20057;-69
2022/04/12 06:52:58;;;;;;;8.88;4.70;;;;;;;11.22;52.06;100961.59;5034029;28;20823;-69
2022/04/12 06:55:26;;;;;;;7.18;4.93;;;;;;;11.40;51.98;100966.28;5033642;28;20045;-69
2022/04/12 06:57:53;;;;;;;9.63;4.75;;;;;;;11.57;51.30;100954.31;5033723;28;20449;-70
2022/04/12 07:00:20;;;;;;;6.50;4.53;;;;;;;11.72;50.75;100945.91;5033390;28;20046;-69
2022/04/12 07:02:48;;;;;;;7.47;4.63;;;;;;;11.88;50.44;100956.81;5034167;28;20038;-69
2022/04/12 07:05:16;;;;;;;8.90;5.13;;;;;;;12.05;50.41;100952.75;5033916;28;20042;-67
2022/04/12 07:07:43;;;;;;;8.30;5.00;;;;;;;12.21;50.13;100958.38;5033788;28;20046;-69
2022/04/12 07:10:15;;;;;;;14.50;5.00;;;;;;;12.32;49.61;100960.63;5021480;28;20034;-69
2022/04/12 07:12:43;;;;;;;10.07;5.20;;;;;;;12.42;49.89;100952.31;5023173;28;20038;-67
2022/04/12 07:15:13;;;;;;;9.10;4.93;;;;;;;12.55;49.68;100963.31;5032565;28;20526;-69
2022/04/12 07:17:40;;;;;;;9.70;4.93;;;;;;;12.63;49.80;100956.88;5033937;28;20042;-68
2022/04/12 07:20:08;;;;;;;10.27;4.78;;;;;;;12.74;49.49;100938.81;5033639;28;20042;-68
2022/04/12 07:22:35;;;;;;;11.65;4.88;;;;;;;12.82;49.16;100927.94;5033832;28;20050;-69
2022/04/12 07:25:03;;;;;;;8.27;4.57;;;;;;;12.88;49.03;100931.22;5018998;28;20891;-71
2022/04/12 07:27:36;;;;;;;9.73;4.90;;;;;;;12.87;48.83;100921.56;5013037;28;20043;-68
2022/04/12 07:30:08;;;;;;;10.32;4.45;;;;;;;12.96;49.12;100927.41;5013633;28;20042;-70
2022/04/12 07:32:35;;;;;;;8.15;4.75;;;;;;;13.07;49.21;100927.00;5013245;28;20524;-69
2022/04/12 07:35:05;;;;;;;7.85;4.03;;;;;;;13.18;48.84;100916.81;5027832;28;20050;-70
2022/04/12 07:37:33;;;;;;;11.02;5.10;;;;;;;13.32;48.75;100917.16;5033192;28;20038;-69
2022/04/12 07:40:00;;;;;;;7.95;4.13;;;;;;;13.50;48.42;100909.41;5017827;28;20412;-69
2022/04/12 07:42:27;;;;;;;6.97;4.20;;;;;;;13.66;48.40;100904.31;5013731;28;20049;-69
2022/04/12 07:44:54;;;;;;;6.60;4.18;;;;;;;13.82;47.77;100901.88;5031123;28;20127;-69
2022/04/12 07:47:21;;;;;;;13.65;4.40;;;;;;;13.95;47.41;100903.09;5033226;28;20045;-70
2022/04/12 07:49:48;;;;;;;8.77;4.40;;;;;;;14.09;47.44;100901.63;5032259;28;20042;-70
2022/04/12 07:52:15;;;;;;;7.90;4.18;;;;;;;14.27;47.67;100905.22;5033346;28;20037;-69
2022/04/12 07:54:42;;;;;;;9.35;3.97;;;;;;;14.48;47.37;100907.84;5017339;28;20049;-69
2022/04/12 07:57:09;;;;;;;5.50;3.90;;;;;;;14.68;47.19;100894.56;5029983;28;20125;-68
2022/04/12 07:59:38;;;;;;;7.22;3.75;;;;;;;14.86;46.60;100900.78;5046066;28;20037;-69
2022/04/12 08:02:05;;;;;;;6.45;3.60;;;;;;;15.02;45.79;100903.59;5042952;28;20038;-69
2022/04/12 08:04:33;;;;;;;7.10;3.53;;;;;;;15.19;45.66;100899.25;5031255;28;20045;-69
2022/04/12 08:07:00;;;;;;;8.00;3.28;;;;;;;15.32;44.83;100900.38;5030158;28;20046;-70
2022/04/12 08:09:27;;;;;;;6.55;3.30;;;;;;;15.49;44.55;100911.94;5030145;28;20064;-68
2022/04/12 08:11:54;;;;;;;11.57;3.30;;;;;;;15.63;44.73;100917.44;5031135;28;20049;-69
2022/04/12 08:14:21;;;;;;;6.75;3.10;;;;;;;15.81;44.56;100918.31;5031274;28;20420;-69
2022/04/12 08:16:48;;;;;;;8.18;2.97;;;;;;;15.97;43.25;100923.69;5038018;28;20048;-69
2022/04/12 08:19:15;;;;;;;6.80;2.67;;;;;;;16.08;43.60;100915.19;5026932;28;20049;-69
2022/04/12 08:21:46;;;;;;;9.48;3.00;;;;;;;16.19;42.32;100911.09;5039826;28;20042;-69
2022/04/12 08:24:13;;;;;;;13.27;3.40;;;;;;;16.34;42.42;100912.94;5021413;28;20053;-69
2022/04/12 08:26:40;;;;;;;5.47;3.03;;;;;;;16.53;42.86;100906.66;5044744;28;20455;-69
2022/04/12 08:29:07;;;;;;;9.70;3.45;;;;;;;16.76;43.19;100902.72;5034793;28;20058;-70
2022/04/12 08:31:34;;;;;;;5.93;2.95;;;;;;;17.01;43.52;100906.69;5040763;28;20033;-69
2022/04/12 08:34:02;;;;;;;6.93;2.95;;;;;;;17.26;42.92;100910.63;5037920;28;20045;-68
2022/04/12 08:36:29;;;;;;;5.30;3.08;;;;;;;17.46;42.74;100905.00;5017808;28;20871;-70
2022/04/12 08:38:56;;;;;;;9.70;3.25;;;;;;;17.62;42.52;100910.28;5032238;28;20558;-70
2022/04/12 08:41:26;;;;;;;6.43;2.80;;;;;;;17.76;41.89;100911.25;5037195;28;20157;-70
2022/04/12 08:43:58;;;;;;;5.78;2.67;;;;;;;17.87;41.42;100907.97;5022215;28;20500;-71
2022/04/12 08:46:27;;;;;;;8.80;2.85;;;;;;;17.96;41.56;100905.63;5032302;28;20030;-70
2022/04/12 08:48:57;;;;;;;6.32;2.63;;;;;;;18.03;41.18;100906.13;5032304;28;20140;-69
2022/04/12 08:51:30;;;;;;;12.82;3.20;;;;;;;18.04;40.65;100899.00;5032369;28;20061;-71
2022/04/12 08:53:58;;;;;;;10.35;3.00;;;;;;;18.06;40.66;100900.59;5031661;28;20069;-69
2022/04/12 08:56:28;;;;;;;9.60;3.25;;;;;;;18.12;40.78;100904.72;5032138;28;20112;-68
2022/04/12 08:58:56;;;;;;;9.05;2.92;;;;;;;18.22;40.52;100902.31;5026933;28;20046;-69
2022/04/12 09:01:42;;;;;;;9.65;3.03;;;;;;;18.29;40.18;100896.53;5031441;28;20054;-70
2022/04/12 09:04:10;;;;;;;9.90;3.15;;;;;;;18.40;39.96;100895.00;5032028;28;20050;-70
2022/04/12 09:06:53;;;;;;;8.40;2.92;;;;;;;18.50;40.22;100890.78;5031415;28;20034;-69
2022/04/12 09:09:25;;;;;;;6.28;3.22;;;;;;;18.56;39.64;100895.75;5032177;28;20052;-71
2022/04/12 09:12:02;;;;;;;11.10;3.25;;;;;;;18.59;39.29;100892.88;5031368;28;20663;-70
2022/04/12 09:14:52;;;;;;;5.75;2.88;;;;;;;18.59;39.05;100884.03;5013463;28;20060;-69
2022/04/12 09:17:35;;;;;;;5.80;2.92;;;;;;;18.60;39.04;100885.75;5032496;28;20088;-69
2022/04/12 09:20:11;;;;;;;9.95;3.28;;;;;;;18.63;38.95;100881.06;5032821;28;20044;-70
2022/04/12 09:22:39;;;;;;;5.13;2.90;;;;;;;18.67;39.24;100876.38;5032675;28;20034;-70
2022/04/12 09:25:10;;;;;;;9.20;3.42;;;;;;;18.71;39.50;100869.03;5032849;28;20049;-70
2022/04/12 09:27:39;;;;;;;9.20;3.10;;;;;;;18.77;39.69;100866.81;5026695;28;20523;-70
2022/04/12 09:30:12;;;;;;;7.10;3.30;;;;;;;18.89;39.74;100862.50;5019039;28;20496;-70
2022/04/12 09:32:44;;;;;;;5.18;2.92;;;;;;;19.03;39.31;100872.31;5033240;28;20124;-69
2022/04/12 09:35:12;;;;;;;7.30;3.30;;;;;;;19.16;39.09;100864.34;5031682;28;20121;-69
2022/04/12 09:37:45;;;;;;;9.43;3.10;;;;;;;19.26;38.97;100872.59;5032380;28;20049;-71
2022/04/12 09:40:15;;;;;;;9.48;3.30;;;;;;;19.33;38.65;100875.72;5032418;28;20042;-68
2022/04/12 09:42:52;;;;;;;7.13;3.20;;;;;;;19.42;39.14;100879.63;5024048;28;20069;-70
2022/04/12 09:45:23;;;;;;;4.65;2.78;;;;;;;19.49;39.08;100875.56;5019662;28;20038;-69
2022/04/12 09:47:59;;;;;;;8.77;3.00;;;;;;;19.57;39.27;100875.88;5032074;28;20076;-69
2022/04/12 09:50:49;;;;;;;7.40;3.13;;;;;;;19.67;38.99;100874.31;5032059;28;20046;-70
2022/04/12 09:53:16;;;;;;;6.65;2.80;;;;;;;19.72;38.70;100865.97;5031959;28;20045;-69
2022/04/12 09:55:52;;;;;;;11.10;3.13;;;;;;;19.79;38.55;100858.38;5033040;28;20641;-70
2022/04/12 09:58:21;;;;;;;8.25;2.78;;;;;;;19.86;38.53;100854.34;5031054;28;20064;-69
2022/04/12 10:00:48;;;;;;;13.68;2.80;;;;;;;19.97;38.08;100848.25;5027608;28;20103;-69
2022/04/12 10:03:20;;;;;;;10.55;3.17;;;;;;;20.04;37.12;100846.84;5031172;28;20042;-68
2022/04/12 10:05:47;;;;;;;6.63;2.50;;;;;;;20.12;37.47;100835.63;5031168;28;20045;-70
2022/04/12 10:08:19;;;;;;;6.00;2.50;;;;;;;20.22;36.55;100836.69;5031565;28;20565;-71
2022/04/12 10:10:46;;;;;;;6.20;2.58;;;;;;;20.29;36.68;100845.13;5027026;28;20092;-72
2022/04/12 10:13:16;;;;;;;5.82;2.38;;;;;;;20.32;36.04;100844.91;5035533;28;20050;-70
2022/04/12 10:15:44;;;;;;;5.45;2.40;;;;;;;20.35;36.36;100854.53;5050607;28;20079;-71
2022/04/12 10:18:15;;;;;;;5.13;2.53;;;;;;;20.41;36.31;100854.09;5051062;28;20115;-71
2022/04/12 10:20:44;;;;;;;6.05;2.47;;;;;;;20.50;36.46;100849.91;5054526;28;20577;-71
2022/04/12 10:23:23;;;;;;;10.30;2.53;;;;;;;20.61;36.48;100847.28;5053865;28;20323;-71
2022/04/12 10:25:53;;;;;;;8.85;2.90;;;;;;;20.69;36.62;100841.38;5014770;28;20076;-70
2022/04/12 10:28:23;;;;;;;5.70;2.83;;;;;;;20.79;36.26;100851.34;5017268;28;20046;-71
2022/04/12 10:30:51;;;;;;;9.23;2.78;;;;;;;20.90;36.17;100844.34;5015048;28;20042;-71
2022/04/12 10:33:26;;;;;;;10.32;2.78;;;;;;;21.02;36.84;100840.72;5014578;28;20497;-70
2022/04/12 10:35:56;;;;;;;10.43;2.88;;;;;;;21.18;36.28;100840.44;5030862;28;20058;-71
2022/04/12 10:38:36;;;;;;;9.52;3.40;;;;;;;21.26;35.33;100832.66;5033035;28;20096;-70
2022/04/12 10:41:24;;;;;;;7.00;2.70;;;;;;;21.43;35.79;100833.22;5028850;28;20530;-71
2022/04/12 10:43:57;;;;;;;6.68;2.70;;;;;;;21.58;35.01;100831.19;5012614;28;20049;-71
2022/04/12 10:46:46;;;;;;;8.63;3.37;;;;;;;21.64;34.92;100821.84;5028449;28;20046;-72
2022/04/12 10:49:19;;;;;;;8.00;2.75;;;;;;;21.69;35.11;100815.16;5049590;28;21207;-70
2022/04/12 10:51:59;;;;;;;4.32;2.75;;;;;;;21.70;35.12;100816.00;5033718;28;20046;-71
2022/04/12 10:54:34;;;;;;;10.25;2.65;;;;;;;21.83;35.62;100815.88;5033811;28;20040;-71
2022/04/12 10:57:34;;;;;;;7.35;2.45;;;;;;;21.95;34.20;100814.94;5034025;28;20038;-71
2022/04/12 11:00:08;;;;;;;6.63;2.75;;;;;;;22.26;33.97;100807.13;5028325;28;20108;-71
2022/04/12 11:02:41;;;;;;;6.47;2.90;;;;;;;22.60;34.05;100809.78;5034624;28;20052;-71
2022/04/12 11:05:34;;;;;;;10.20;2.70;;;;;;;22.85;34.36;100801.53;5034188;28;20041;-71
2022/04/12 11:08:33;;;;;;;8.75;3.03;;;;;;;22.93;33.25;100793.69;5026881;28;20108;-71
2022/04/12 11:11:00;;;;;;;9.38;3.22;;;;;;;23.01;32.77;100790.34;5014255;28;20046;-71
2022/04/12 11:13:30;;;;;;;5.15;2.45;;;;;;;23.25;31.83;100788.28;5022307;28;20049;-72
2022/04/12 11:16:00;;;;;;;4.97;2.90;;;;;;;23.58;32.29;100793.63;5021049;28;20184;-71
2022/04/12 11:18:57;;;;;;;8.73;3.20;;;;;;;23.95;31.81;100793.13;5033805;28;20065;-71
2022/04/12 11:21:51;;;;;;;11.30;3.22;;;;;;;24.14;31.27;100783.41;5033484;28;20524;-73
2022/04/12 11:24:22;;;;;;;19.10;3.53;;;;;;;24.15;30.74;100793.19;5030146;28;20062;-70
2022/04/12 11:27:03;;;;;;;6.47;2.53;;;;;;;24.01;29.26;100778.28;5033453;28;20097;-71
2022/04/12 11:29:31;;;;;;;9.95;2.85;;;;;;;23.75;30.38;100778.72;5032975;28;20034;-71
2022/04/12 11:31:59;;;;;;;10.85;3.08;;;;;;;23.59;30.19;100781.88;5027784;28;20043;-71
2022/04/12 11:34:28;;;;;;;11.25;3.80;;;;;;;23.25;31.42;100782.91;5012767;28;20053;-70
2022/04/12 11:37:03;;;;;;;9.57;3.53;;;;;;;23.10;31.57;100776.13;5013146;28;20058;-71
2022/04/12 11:39:38;;;;;;;9.43;3.88;;;;;;;23.09;32.48;100777.97;5029887;28;20046;-72
2022/04/12 11:42:08;;;;;;;6.75;3.00;;;;;;;23.21;32.00;100789.56;5033680;28;20046;-72
2022/04/12 11:44:36;;;;;;;12.93;3.58;;;;;;;23.31;31.56;100795.00;5032881;28;20050;-71